Map

Track Data

SID SEASON NUMBER BASIN SUBBASIN NAME ISO_TIME NATURE LAT LON WMO_WIND WMO_PRES WMO_AGENCY TRACK_TYPE DIST2LAND LANDFALL IFLAG USA_AGENCY USA_ATCF_ID USA_LAT USA_LON USA_RECORD USA_STATUS USA_WIND USA_PRES USA_SSHS USA_R34_NE USA_R34_SE USA_R34_SW USA_R34_NW USA_R50_NE USA_R50_SE USA_R50_SW USA_R50_NW USA_R64_NE USA_R64_SE USA_R64_SW USA_R64_NW USA_POCI USA_ROCI USA_RMW USA_EYE TOKYO_LAT TOKYO_LON TOKYO_GRADE TOKYO_WIND TOKYO_PRES TOKYO_R50_DIR TOKYO_R50_LONG TOKYO_R50_SHORT TOKYO_R30_DIR TOKYO_R30_LONG TOKYO_R30_SHORT TOKYO_LAND CMA_LAT CMA_LON CMA_CAT CMA_WIND CMA_PRES HKO_LAT HKO_LON HKO_CAT HKO_WIND HKO_PRES NEWDELHI_LAT NEWDELHI_LON NEWDELHI_GRADE NEWDELHI_WIND NEWDELHI_PRES NEWDELHI_CI NEWDELHI_DP NEWDELHI_POCI REUNION_LAT REUNION_LON REUNION_TYPE REUNION_WIND REUNION_PRES REUNION_TNUM REUNION_CI REUNION_RMW REUNION_R34_NE REUNION_R34_SE REUNION_R34_SW REUNION_R34_NW REUNION_R50_NE REUNION_R50_SE REUNION_R50_SW REUNION_R50_NW REUNION_R64_NE REUNION_R64_SE REUNION_R64_SW REUNION_R64_NW BOM_LAT BOM_LON BOM_TYPE BOM_WIND BOM_PRES BOM_TNUM BOM_CI BOM_RMW BOM_R34_NE BOM_R34_SE BOM_R34_SW BOM_R34_NW BOM_R50_NE BOM_R50_SE BOM_R50_SW BOM_R50_NW BOM_R64_NE BOM_R64_SE BOM_R64_SW BOM_R64_NW BOM_ROCI BOM_POCI BOM_EYE BOM_POS_METHOD BOM_PRES_METHOD NADI_LAT NADI_LON NADI_CAT NADI_WIND NADI_PRES WELLINGTON_LAT WELLINGTON_LON WELLINGTON_WIND WELLINGTON_PRES DS824_LAT DS824_LON DS824_STAGE DS824_WIND DS824_PRES TD9636_LAT TD9636_LON TD9636_STAGE TD9636_WIND TD9636_PRES TD9635_LAT TD9635_LON TD9635_WIND TD9635_PRES TD9635_ROCI NEUMANN_LAT NEUMANN_LON NEUMANN_CLASS NEUMANN_WIND NEUMANN_PRES MLC_LAT MLC_LON MLC_CLASS MLC_WIND MLC_PRES USA_GUST BOM_GUST BOM_GUST_PER REUNION_GUST REUNION_GUST_PER USA_SEAHGT USA_SEARAD_NE USA_SEARAD_SE USA_SEARAD_SW USA_SEARAD_NW STORM_SPEED STORM_DIR
1954044S11178 1954 7 SP MM NOT_NAMED 1954-02-12 12:00:00 TS -10.7000 177.700 main 656 631 O________OO___ jtwc_sh SH081954 -10.7000 177.700 -1 -10.7000 177.700 TC -10.7000 177.700 4 10 223
1954044S11178 1954 7 SP MM NOT_NAMED 1954-02-12 15:00:00 TS -11.0579 177.356 main 624 610 P________PP___ SH081954 -11.0625 177.375 -1 -11.0625 177.375 TC -11.0486 177.317 4 10 226
1954044S11178 1954 7 SP MM NOT_NAMED 1954-02-12 18:00:00 TS -11.3925 176.972 main 610 596 O________OP___ jtwc_sh SH081954 -11.4000 177.000 -1 -11.4000 177.000 TC -11.3776 176.916 4 10 233
1954044S11178 1954 7 SP MM NOT_NAMED 1954-02-12 21:00:00 TS -11.6809 176.519 main 599 593 P________PP___ SH081954 -11.6874 176.538 -1 -11.6874 176.538 TC -11.6679 176.483 4 11 242
1954044S11178 1954 7 SP MM NOT_NAMED 1954-02-13 00:00:00 TS -11.9000 176.000 main 601 601 O________OO___ jtwc_sh SH081954 -11.9000 176.000 -1 -11.9000 176.000 TC -11.9000 176.000 4 11 252
1954044S11178 1954 7 SP MM NOT_NAMED 1954-02-13 03:00:00 TS -12.0310 175.429 main 623 619 P________PP___ SH081954 -12.0150 175.415 -1 -12.0150 175.415 TC -12.0631 175.458 4 12 259
1954044S11178 1954 7 SP MM NOT_NAMED 1954-02-13 06:00:00 TS -12.1266 174.822 main 651 649 O________OP___ jtwc_sh SH081954 -12.1000 174.800 -1 -12.1000 174.800 TC -12.1799 174.866 4 12 259
1954044S11178 1954 7 SP MM NOT_NAMED 1954-02-13 09:00:00 TS -12.2505 174.219 main 676 676 P________PP___ SH081954 -12.2348 174.207 -1 -12.2348 174.207 TC -12.2817 174.242 4 12 257
1954044S11178 1954 7 SP MM NOT_NAMED 1954-02-13 12:00:00 TS -12.4000 173.600 main 708 691 O________OO___ jtwc_sh SH081954 -12.4000 173.600 -1 -12.4000 173.600 TC -12.4000 173.600 4 13 255
1954044S11178 1954 7 SP MM NOT_NAMED 1954-02-13 15:00:00 TS -12.5878 172.948 main 681 613 P________PP___ SH081954 -12.5924 172.957 -1 -12.5924 172.957 TC -12.5787 172.928 4 13 253
1954044S11178 1954 7 SP MM NOT_NAMED 1954-02-13 18:00:00 TS -12.7927 172.283 main 613 534 O________OP___ jtwc_sh SH081954 -12.8000 172.300 -1 -12.8000 172.300 TC -12.7780 172.248 4 14 253
1954044S11178 1954 7 SP MM NOT_NAMED 1954-02-13 21:00:00 TS -12.9961 171.611 main 534 466 P________PP___ SH081954 -13.0000 171.620 -1 -13.0000 171.620 TC -12.9882 171.594 4 13 252
1954044S11178 1954 7 SP MM NOT_NAMED 1954-02-14 00:00:00 TS -13.2000 171.000 main 466 408 O________OO___ jtwc_sh SH081954 -13.2000 171.000 -1 -13.2000 171.000 TC -13.2000 171.000 4 12 249
1954044S11178 1954 7 SP MM NOT_NAMED 1954-02-14 03:00:00 TS -13.4036 170.509 main 408 359 P________PP___ SH081954 -13.3998 170.512 -1 -13.3998 170.512 TC -13.4114 170.502 4 10 245
1954044S11178 1954 7 SP MM NOT_NAMED 1954-02-14 06:00:00 TS -13.6072 170.089 main 359 310 O________OP___ jtwc_sh SH081954 -13.6000 170.100 -1 -13.6000 170.100 TC -13.6215 170.067 4 9 243
1954044S11178 1954 7 SP MM NOT_NAMED 1954-02-14 09:00:00 TS -13.8169 169.681 main 310 262 P________PP___ SH081954 -13.8149 169.685 -1 -13.8149 169.685 TC -13.8209 169.674 4 9 243
1954044S11178 1954 7 SP MM NOT_NAMED 1954-02-14 12:00:00 TS -14.0000 169.300 main 262 228 O________OO___ jtwc_sh SH081954 -14.0000 169.300 -1 -14.0000 169.300 TC -14.0000 169.300 4 8 248
1954044S11178 1954 7 SP MM NOT_NAMED 1954-02-14 15:00:00 TS -14.1067 168.943 main 218 184 P________PP___ SH081954 -14.1074 168.950 -1 -14.1074 168.950 TC -14.1054 168.930 4 7 254
1954044S11178 1954 7 SP MM NOT_NAMED 1954-02-14 18:00:00 TS -14.1989 168.590 main 184 141 O________OP___ jtwc_sh SH081954 -14.2000 168.600 -1 -14.2000 168.600 TC -14.1967 168.571 4 7 254
1954044S11178 1954 7 SP MM NOT_NAMED 1954-02-14 21:00:00 TS -14.3132 168.215 main 141 93 P________PP___ SH081954 -14.3124 168.222 -1 -14.3124 168.222 TC -14.3147 168.202 4 8 249
1954044S11178 1954 7 SP MM NOT_NAMED 1954-02-15 00:00:00 TS -14.5000 167.800 main 93 39 O________OO___ jtwc_sh SH081954 -14.5000 167.800 -1 -14.5000 167.800 TC -14.5000 167.800 4 10 240
1954044S11178 1954 7 SP MM NOT_NAMED 1954-02-15 03:00:00 TS -14.8066 167.325 main 31 0 P________PP___ SH081954 -14.8125 167.315 -1 -14.8125 167.315 TC -14.7949 167.344 4 12 234
1954044S11178 1954 7 SP MM NOT_NAMED 1954-02-15 06:00:00 TS -15.1866 166.817 main 0 0 O________OP___ jtwc_sh SH081954 -15.2000 166.800 -1 -15.2000 166.800 TC -15.1599 166.852 4 12 232
1954044S11178 1954 7 SP MM NOT_NAMED 1954-02-15 09:00:00 TS -15.5798 166.316 main 39 39 P________PP___ SH081954 -15.5848 166.307 -1 -15.5848 166.307 TC -15.5698 166.334 4 13 230
1954044S11178 1954 7 SP MM NOT_NAMED 1954-02-15 12:00:00 TS -16.0000 165.800 main 108 108 O________OO___ jtwc_sh SH081954 -16.0000 165.800 -1 -16.0000 165.800 TC -16.0000 165.800 4 13 230
1954044S11178 1954 7 SP MM NOT_NAMED 1954-02-15 15:00:00 TS -16.4423 165.250 main 178 178 P________PP___ SH081954 -16.4499 165.257 -1 -16.4499 165.257 TC -16.4271 165.236 4 14 230
1954044S11178 1954 7 SP MM NOT_NAMED 1954-02-15 18:00:00 TS -16.8885 164.688 main 261 261 O________OP___ jtwc_sh SH081954 -16.9000 164.700 -1 -16.9000 164.700 TC -16.8654 164.663 4 14 231
1954044S11178 1954 7 SP MM NOT_NAMED 1954-02-15 21:00:00 TS -17.3086 164.126 main 324 282 P________PP___ SH081954 -17.3150 164.135 -1 -17.3150 164.135 TC -17.2959 164.108 4 13 232
1954044S11178 1954 7 SP MM NOT_NAMED 1954-02-16 00:00:00 TS -17.7000 163.600 main 284 275 O________OO___ jtwc_sh SH081954 -17.7000 163.600 -1 -17.7000 163.600 TC -17.7000 163.600 4 10 234
1954044S11178 1954 7 SP MM NOT_NAMED 1954-02-16 02:00:00 TS -17.8010 163.411 bom main 278 278 P_____O__PP___ SH081954 -17.9466 163.268 -1 -16.0000 165.000 -17.9466 163.268 TC -17.9600 163.299 4 5 246
1954044S11178 1954 7 SP MM NOT_NAMED 1954-02-16 03:00:00 TS -17.7936 163.381 main 278 263 P_____P__PP___ SH081954 -18.0649 163.112 -1 -16.1241 164.903 -18.0649 163.112 TC -18.0856 163.158 4 6 232
1954044S11178 1954 7 SP MM NOT_NAMED 1954-02-16 06:00:00 TS -18.0300 163.099 main 267 247 O_____P__OP___ jtwc_sh SH081954 -18.4000 162.700 -1 -16.4976 164.607 -18.4000 162.700 TC -18.4392 162.767 4 7 226
1954044S11178 1954 7 SP MM NOT_NAMED 1954-02-16 09:00:00 TS -18.2746 162.866 main 247 238 P_____P__PP___ SH081954 -18.7373 162.377 -1 -16.8755 164.293 -18.7373 162.377 TC -18.7483 162.418 4 7 224
1954044S11178 1954 7 SP MM NOT_NAMED 1954-02-16 12:00:00 TS -18.5653 162.562 main 238 238 O_____P__OO___ jtwc_sh SH081954 -19.0000 162.100 -1 -17.2613 163.948 -19.0000 162.100 TC -19.0000 162.100 4 8 231
1954044S11178 1954 7 SP MM NOT_NAMED 1954-02-16 15:00:00 TS -18.7633 162.236 main 252 252 P_____P__PP___ SH081954 -19.1225 161.792 -1 -17.6587 163.558 -19.1225 161.792 TC -19.1496 161.799 4 7 239
1954044S11178 1954 7 SP MM NOT_NAMED 1954-02-16 18:00:00 TS -18.9301 161.909 main 270 263 O_____P__OP___ jtwc_sh SH081954 -19.2000 161.500 -1 -18.0710 163.111 -19.2000 161.500 TC -19.2495 161.526 4 7 240
1954044S11178 1954 7 SP MM NOT_NAMED 1954-02-16 21:00:00 TS -19.1227 161.589 main 284 284 P_____P__PP___ SH081954 -19.3199 161.250 -1 -18.5014 162.592 -19.3199 161.250 TC -19.3496 161.265 4 7 236
1954044S11178 1954 7 SP MM NOT_NAMED 1954-02-16 23:00:00 TS -19.2754 161.366 992 bom main 294 294 P_____O__PP___ SH081954 -19.4302 161.086 -1 -18.8000 162.200 992 -19.4302 161.086 TC -19.4412 161.090 4 7 233
1954044S11178 1954 7 SP MM NOT_NAMED 1954-02-17 00:00:00 TS -19.3359 161.292 main 303 299 O_____P__OO___ jtwc_sh SH081954 -19.5000 161.000 -1 -18.9527 161.989 -19.5000 161.000 TC -19.5000 161.000 4 8 228
1954044S11178 1954 7 SP MM NOT_NAMED 1954-02-17 03:00:00 TS -19.6128 160.964 main 323 323 P_____P__PP___ SH081954 -19.7700 160.707 -1 -19.4039 161.324 -19.7700 160.707 TC -19.7710 160.743 4 8 227
1954044S11178 1954 7 SP MM NOT_NAMED 1954-02-17 06:00:00 TS -19.9041 160.634 main 357 356 O_____P__OP___ jtwc_sh SH081954 -20.1000 160.400 -1 -19.7980 160.677 -20.1000 160.400 TC -20.0965 160.474 4 8 227
1954044S11178 1954 7 SP MM NOT_NAMED 1954-02-17 08:00:00 TS -20.0748 160.445 bom main 376 375 P_____O__PP___ SH081954 -20.3307 160.222 -1 -20.0000 160.300 -20.3307 160.222 TC -20.3302 160.276 4 8 226
1954044S11178 1954 7 SP MM NOT_NAMED 1954-02-17 09:00:00 TS -20.1708 160.341 main 386 386 P_____P__PP___ SH081954 -20.4498 160.130 -1 -20.0670 160.182 -20.4498 160.130 TC -20.4489 160.168 4 8 228
1954044S11178 1954 7 SP MM NOT_NAMED 1954-02-17 12:00:00 TS -20.4339 160.018 main 417 417 O_____P__OO___ jtwc_sh SH081954 -20.8000 159.800 -1 -20.1729 159.950 -20.8000 159.800 TC -20.8000 159.800 4 8 235
1954044S11178 1954 7 SP EA NOT_NAMED 1954-02-17 15:00:00 TS -20.6447 159.632 main 459 459 P_____P__PP___ SH081954 -21.1075 159.337 -1 -20.1724 159.816 -21.1075 159.337 TC -21.0997 159.323 4 9 243
1954044S11178 1954 7 SP EA NOT_NAMED 1954-02-17 18:00:00 TS -20.8317 159.191 main 502 502 O_____P__OP___ jtwc_sh SH081954 -21.4000 158.800 -1 -20.1116 159.669 -21.4000 158.800 TC -21.3935 158.787 4 9 247
1954044S11178 1954 7 SP EA NOT_NAMED 1954-02-17 21:00:00 TS -21.0110 158.698 main 556 556 P_____P__PP___ SH081954 -21.6926 158.235 -1 -20.0362 159.401 -21.6926 158.235 TC -21.6903 158.233 4 10 249
1954044S11178 1954 7 SP EA NOT_NAMED 1954-02-17 23:00:00 TS -21.1337 158.343 985 bom main 599 599 P_____O__PP___ SH081954 -21.8943 157.869 -1 -20.0000 159.100 985 -21.8943 157.869 TC -21.8947 157.873 4 11 250
1954044S11178 1954 7 SP EA NOT_NAMED 1954-02-18 00:00:00 TS -21.1982 158.155 main 611 581 O_____P__OO___ jtwc_sh SH081954 -22.0000 157.700 -1 -19.9909 158.874 -22.0000 157.700 TC -22.0000 157.700 4 11 248
1954044S11178 1954 7 SP EA NOT_NAMED 1954-02-18 03:00:00 TS -21.4030 157.614 main 581 542 P_____P__PP___ SH081954 -22.3422 157.285 -1 -19.9758 158.110 -22.3422 157.285 TC -22.3227 157.245 4 11 247
1954044S11178 1954 7 SP EA NOT_NAMED 1954-02-18 05:00:00 TS -21.5553 157.266 bom main 542 527 P_____O__PP___ SH081954 -22.5805 157.031 -1 -20.0000 157.600 -22.5805 157.031 TC -22.5466 156.958 4 11 244
1954044S11178 1954 7 SP EA NOT_NAMED 1954-02-18 06:00:00 TS -21.6344 157.098 main 527 467 O_____P__OP___ jtwc_sh SH081954 -22.7000 156.900 -1 -20.0105 157.370 -22.7000 156.900 TC -22.6616 156.819 4 11 243
1954044S11178 1954 7 SP EA NOT_NAMED 1954-02-18 09:00:00 TS -21.8738 156.589 main 467 415 P_____P__PP___ SH081954 -23.0350 156.450 -1 -20.0775 156.734 -23.0350 156.450 TC -23.0197 156.408 4 11 240
1954044S11178 1954 7 SP EA NOT_NAMED 1954-02-18 12:00:00 TS -22.1572 156.108 main 407 354 O_____P__OO___ jtwc_sh SH081954 -23.4000 156.000 -1 -20.2186 156.181 -23.4000 156.000 TC -23.4000 156.000 4 11 233
1954044S11178 1954 7 SP EA NOT_NAMED 1954-02-18 15:00:00 TS -22.5192 155.663 main 354 293 P_____P__PP___ SH081954 -23.8423 155.600 -1 -20.4604 155.720 -23.8423 155.600 TC -23.8324 155.507 4 11 225
1954044S11178 1954 7 SP EA NOT_NAMED 1954-02-18 18:00:00 TS -22.9373 155.256 main 293 225 O_____P__OP___ jtwc_sh SH081954 -24.3000 155.200 -1 -20.8295 155.358 -24.3000 155.200 TC -24.2809 155.025 4 11 220
1954044S11178 1954 7 SP EA NOT_NAMED 1954-02-18 21:00:00 TS -23.3949 154.863 main 225 187 P_____P__PP___ SH081954 -24.7228 154.705 -1 -21.3526 155.105 -24.7228 154.705 TC -24.7137 154.605 4 12 215
1954044S11178 1954 7 SP EA NOT_NAMED 1954-02-18 23:00:00 TS -23.7219 154.653 975 bom main 187 165 P_____O__PP___ SH081954 -24.9808 154.413 -1 -21.8000 155.000 975 -24.9808 154.413 TC -24.9783 154.385 4 11 208
1954044S11178 1954 7 SP EA NOT_NAMED 1954-02-19 00:00:00 TS -23.9010 154.575 main 165 124 O_____P__OO___ jtwc_sh SH081954 -25.1000 154.300 -1 -22.1052 154.977 974 -25.1000 154.300 TC -25.1000 154.300 4 12 192
1954044S11178 1954 7 SP EA NOT_NAMED 1954-02-19 03:00:00 TS -24.4919 154.477 main 124 110 P_____P__PP___ SH081954 -25.4298 154.117 -1 -23.1507 154.994 972 -25.4298 154.117 TC -25.4117 154.196 4 12 183
1954044S11178 1954 7 SP EA NOT_NAMED 1954-02-19 06:00:00 TS -25.0834 154.501 main 111 111 O_____P__OP___ jtwc_sh SH081954 -25.7000 154.100 -1 -24.2609 155.085 970 -25.7000 154.100 TC -25.6741 154.207 4 11 175
1954044S11178 1954 7 SP EA NOT_NAMED 1954-02-19 09:00:00 TS -25.6196 154.582 main 137 137 P_____P__PP___ SH081954 -25.9225 154.192 -1 -25.2682 155.177 969 -25.9225 154.192 TC -25.8995 154.265 4 10 172
1954044S11178 1954 7 SP EA NOT_NAMED 1954-02-19 11:00:00 TS -25.9164 154.629 968 bom main 147 147 P_____O__PP___ SH081954 -26.0443 154.273 -1 -25.8000 155.200 968 4 -26.0443 154.273 TC -26.0352 154.295 4 8 172
1954044S11178 1954 7 SP EA NOT_NAMED 1954-02-19 12:00:00 TS -26.0233 154.641 main 149 149 O_____P__OO___ jtwc_sh SH081954 -26.1000 154.300 -1 -25.9164 155.204 968 -26.1000 154.300 TC -26.1000 154.300 4 5 0
1954044S11178 1954 7 SP EA NOT_NAMED 1954-02-19 15:00:00 TS -26.2481 154.607 main 149 139 P_____P__PP___ SH081954 -26.2499 154.295 -1 -26.0626 155.182 968 -26.2499 154.295 TC -26.2596 154.255 4 4 200
1954044S11178 1954 7 SP EA NOT_NAMED 1954-02-19 18:00:00 TS -26.3954 154.491 main 139 119 O_____P__OP___ jtwc_sh SH081954 -26.4000 154.200 -1 -26.0876 155.062 968 -26.4000 154.200 TC -26.4043 154.168 4 4 226
1954044S11178 1954 7 SP EA NOT_NAMED 1954-02-19 21:00:00 TS -26.5321 154.285 main 119 99 P_____P__PP___ SH081954 -26.5699 154.052 -1 -26.2272 154.792 968 -26.5699 154.052 TC -26.5719 154.023 4 6 232
1954044S11178 1954 7 SP EA NOT_NAMED 1954-02-19 23:00:00 TS -26.6759 154.083 968 bom main 99 86 P_____O__PP___ SH081954 -26.7135 153.897 -1 -26.5000 154.500 968 -26.7135 153.897 TC -26.7149 153.884 4 8 230
1954044S11178 1954 7 SP EA NOT_NAMED 1954-02-20 00:00:00 TS -26.7890 153.947 main 76 31 O_____P__OO___ jtwc_sh SH081954 -26.8000 153.800 -1 -26.7533 154.301 968 -26.8000 153.800 TC -26.8000 153.800 4 12 223
1954044S11178 1954 7 SP EA NOT_NAMED 1954-02-20 03:00:00 TS -27.2533 153.486 main 29 14 P_____P__PP___ SH081954 -27.1126 153.430 -1 -27.6236 153.618 969 -27.1126 153.430 TC -27.1645 153.465 4 13 221
1954044S11178 1954 7 SP EA NOT_NAMED 1954-02-20 04:00:00 TS -27.4176 153.328 970 bom main 9 0 P_____O__PP___ SH081954 -27.2346 153.288 -1 -27.9000 153.400 970 -27.2346 153.288 TC -27.3012 153.334 4 13 220
1954044S11178 1954 7 SP EA NOT_NAMED 1954-02-20 06:00:00 TS -27.7377 153.021 main 0 0 O_____P__OP___ jtwc_sh SH081954 -27.5000 153.000 -1 -28.3645 153.029 -27.5000 153.000 TC -27.5861 153.055 4 12 219
1954044S11178 1954 7 SP EA NOT_NAMED 1954-02-20 09:00:00 TS -28.2069 152.605 main 0 0 P_____P__PP___ SH081954 -27.9800 152.585 -1 -28.8529 152.633 -27.9800 152.585 TC -28.0145 152.618 4 11 219
1954044S11178 1954 7 SP EA NOT_NAMED 1954-02-20 12:00:00 TS -28.5831 152.250 main 0 0 O_____P__OO___ jtwc_sh SH081954 -28.4000 152.200 -1 -29.1324 152.400 -28.4000 152.200 TC -28.4000 152.200 4 8 226
1954044S11178 1954 7 SP EA NOT_NAMED 1954-02-20 15:00:00 TS -28.7387 151.980 main 0 0 P_____P__PP___ SH081954 -28.5723 151.884 -1 -29.2487 152.299 -28.5723 151.884 TC -28.5613 151.852 4 5 244
1954044S11178 1954 7 SP EA NOT_NAMED 1954-02-20 18:00:00 TS -28.8072 151.722 main 0 0 O_____P__OP___ jtwc_sh SH081954 -28.7000 151.600 -1 -29.2465 152.294 -28.7000 151.600 TC -28.6923 151.536 4 5 248
1954044S11178 1954 7 SP EA NOT_NAMED 1954-02-20 21:00:00 TS -28.9363 151.431 main 0 0 P_____P__PP___ SH081954 -28.8950 151.292 -1 -29.1701 152.348 -28.8950 151.292 TC -28.9021 151.252 4 7 235
1954044S11178 1954 7 SP EA NOT_NAMED 1954-02-20 23:00:00 TS -29.1303 151.190 992 bom main 0 0 P_____O__PP___ SH081954 -29.1293 151.094 -1 -29.1000 152.400 992 -29.1293 151.094 TC -29.1397 151.080 4 10 226
1954044S11178 1954 7 SP EA NOT_NAMED 1954-02-21 00:00:00 TS -29.3000 151.000 main 0 0 O________OO___ jtwc_sh SH081954 -29.3000 151.000 -1 -29.3000 151.000 TC -29.3000 151.000 4 15 204
1954044S11178 1954 7 SP EA NOT_NAMED 1954-02-21 03:00:00 TS -30.0475 150.729 main 0 0 P________PP___ SH081954 -30.0451 150.728 -1 -30.0451 150.728 TC -30.0522 150.730 4 18 194
1954044S11178 1954 7 SP EA NOT_NAMED 1954-02-21 06:00:00 TS -30.9976 150.498 main 0 0 O________OP___ jtwc_sh SH081954 -31.0000 150.500 -1 -31.0000 150.500 TC -30.9928 150.493 4 20 190
1954044S11178 1954 7 SP EA NOT_NAMED 1954-02-21 09:00:00 TS -32.0089 150.311 main 0 0 P________PP___ SH081954 -32.0075 150.313 -1 -32.0075 150.313 TC -32.0119 150.309 4 20 187
1954044S11178 1954 7 SP EA NOT_NAMED 1954-02-21 12:00:00 TS -33.0000 150.200 main 0 0 O________OO___ jtwc_sh SH081954 -33.0000 150.200 -1 -33.0000 150.200 TC -33.0000 150.200 4 19 184
1954044S11178 1954 7 SP EA NOT_NAMED 1954-02-21 15:00:00 TS -33.8539 150.164 main 0 0 P________PP___ SH081954 -33.8449 150.155 -1 -33.8449 150.155 TC -33.8720 150.184 4 16 0
1954044S11178 1954 7 SP EA NOT_NAMED 1954-02-21 18:00:00 TS -34.6131 150.215 main 0 0 O________OP___ jtwc_sh SH081954 -34.6000 150.200 -1 -34.6000 150.200 TC -34.6394 150.244 4 15 175
1954044S11178 1954 7 SP EA NOT_NAMED 1954-02-21 21:00:00 TS -35.3191 150.337 main 0 0 P________PP___ SH081954 -35.3101 150.327 -1 -35.3101 150.327 TC -35.3371 150.358 4 14 170
1954044S11178 1954 7 SP EA NOT_NAMED 1954-02-22 00:00:00 TS -36.0000 150.500 main 34 O________OO___ jtwc_sh SH081954 -36.0000 150.500 -1 -36.0000 150.500 TC -36.0000 150.500 4 14 169

Digital Typhoon Data and Search

About IBTrACS Database

This database is a web-friendly format of International Best Track Archive for Climate Stewardship (IBTrACS), a global best track data archive curated by NOAA dating back to 1842.

Updated: 2021-12-03